Time;durP1;ratioP1;P1;durP2;ratioP2;P2;SDS_P1;SDS_P2;PMS_P1;PMS_P2;Temp;Humidity;BMP_temperature;BMP_pressure;BME280_temperature;BME280_humidity;BME280_pressure;Samples;Min_cycle;Max_cycle;Signal;HPM_P1;HPM_P2
2021/09/12 00:00:36;;;;;;;5.60;5.10;;;19.40;97.70;;;;;;6224520;28;20252;-65
2021/09/12 00:03:40;;;;;;;5.50;4.87;;;19.30;97.70;;;;;;6225279;28;20743;-64
2021/09/12 00:06:43;;;;;;;5.57;5.17;;;19.30;97.70;;;;;;6225050;28;20243;-64
2021/09/12 00:09:46;;;;;;;6.23;5.73;;;19.30;97.80;;;;;;6225168;28;20232;-65
2021/09/12 00:12:51;;;;;;;7.90;7.10;;;19.10;97.80;;;;;;6231614;23;20232;-64
2021/09/12 00:15:55;;;;;;;7.00;6.30;;;19.10;97.90;;;;;;6225225;28;20237;-64
2021/09/12 00:18:58;;;;;;;6.37;5.87;;;19.10;98.00;;;;;;6225401;28;20235;-63
2021/09/12 00:22:02;;;;;;;6.07;5.57;;;18.90;98.10;;;;;;6215445;28;20237;-63
2021/09/12 00:25:06;;;;;;;7.27;6.50;;;18.90;98.20;;;;;;6224651;28;20247;-63
2021/09/12 00:28:11;;;;;;;6.07;5.57;;;18.90;98.20;;;;;;6224841;28;20252;-63
2021/09/12 00:31:14;;;;;;;6.70;6.10;;;18.80;98.30;;;;;;6224147;28;20677;-63
2021/09/12 00:34:18;;;;;;;7.20;6.60;;;18.80;98.30;;;;;;6224623;28;20310;-63
2021/09/12 00:37:21;;;;;;;6.80;6.30;;;18.80;98.40;;;;;;6225943;28;20225;-63
2021/09/12 00:40:24;;;;;;;8.37;6.87;;;18.70;98.60;;;;;;6225736;28;20611;-63
2021/09/12 00:43:29;;;;;;;7.13;6.53;;;18.70;98.40;;;;;;6226273;28;20247;-64
2021/09/12 00:46:32;;;;;;;6.50;6.00;;;18.60;98.40;;;;;;6225887;28;20239;-63
2021/09/12 00:49:35;;;;;;;7.07;6.47;;;18.60;98.60;;;;;;6225988;28;20668;-63
2021/09/12 00:52:46;;;;;;;6.97;6.30;;;18.50;98.60;;;;;;6226229;28;20240;-64
2021/09/12 00:55:52;;;;;;;6.57;6.07;;;18.50;98.80;;;;;;6220287;28;20573;-64
2021/09/12 00:58:57;;;;;;;5.87;5.33;;;18.50;99.40;;;;;;6200365;28;20244;-64
2021/09/12 01:02:03;;;;;;;6.77;6.07;;;18.50;99.70;;;;;;6220568;28;20241;-64
2021/09/12 01:05:08;;;;;;;6.17;5.67;;;18.40;99.70;;;;;;6224907;28;20228;-65
2021/09/12 01:08:12;;;;;;;7.10;6.50;;;18.40;99.80;;;;;;6224364;28;20550;-65
2021/09/12 01:11:15;;;;;;;6.03;5.53;;;18.40;99.90;;;;;;6226654;28;20251;-65
2021/09/12 01:14:26;;;;;;;6.97;6.30;;;18.30;99.90;;;;;;6232120;28;20225;-64
2021/09/12 01:17:29;;;;;;;6.20;5.70;;;18.30;99.90;;;;;;6231776;28;20229;-65
2021/09/12 01:20:33;;;;;;;6.57;6.07;;;18.30;99.90;;;;;;6230798;28;20294;-65
2021/09/12 01:23:36;;;;;;;6.63;6.13;;;18.30;99.90;;;;;;6231112;28;20212;-65
2021/09/12 01:26:41;;;;;;;7.30;6.57;;;18.40;99.90;;;;;;6231055;28;20232;-65
2021/09/12 01:29:44;;;;;;;6.13;5.60;;;18.40;99.90;;;;;;6230224;28;20216;-65
2021/09/12 01:32:47;;;;;;;7.10;6.50;;;18.40;99.90;;;;;;6229876;28;20660;-65
2021/09/12 01:35:51;;;;;;;7.37;6.77;;;18.40;99.90;;;;;;6223731;28;20299;-65
2021/09/12 01:38:54;;;;;;;7.20;6.60;;;18.30;99.90;;;;;;6212575;28;20551;-65
2021/09/12 01:41:59;;;;;;;7.23;6.63;;;18.30;99.90;;;;;;6206343;28;20642;-65
2021/09/12 01:45:02;;;;;;;6.73;6.13;;;18.30;99.90;;;;;;6216152;28;20237;-65
2021/09/12 01:48:06;;;;;;;7.63;6.83;;;18.30;99.90;;;;;;6205985;28;20232;-65
2021/09/12 01:51:09;;;;;;;6.70;6.20;;;18.20;99.90;;;;;;6205428;28;20475;-65
2021/09/12 01:54:12;;;;;;;7.07;6.47;;;18.20;99.90;;;;;;6205982;28;20237;-65
2021/09/12 01:57:17;;;;;;;6.53;6.00;;;18.20;99.90;;;;;;6205523;28;20705;-65
2021/09/12 02:00:20;;;;;;;6.20;5.80;;;18.20;99.90;;;;;;6204625;28;20690;-65
2021/09/12 02:03:23;;;;;;;7.50;6.80;;;18.10;99.90;;;;;;6205326;28;20225;-65
2021/09/12 02:06:27;;;;;;;6.67;6.00;;;18.00;99.90;;;;;;6205392;28;20288;-65
2021/09/12 02:09:30;;;;;;;7.10;6.43;;;18.00;99.90;;;;;;6205365;28;20479;-65
2021/09/12 02:12:34;;;;;;;6.63;5.83;;;18.00;99.90;;;;;;6204768;28;20229;-65
2021/09/12 02:15:37;;;;;;;6.83;6.00;;;18.00;99.90;;;;;;6205198;28;20229;-65
2021/09/12 02:18:40;;;;;;;6.57;6.07;;;18.00;99.90;;;;;;6204466;28;20576;-66
2021/09/12 02:21:44;;;;;;;7.07;6.47;;;17.90;99.90;;;;;;6204026;28;20476;-65
2021/09/12 02:24:47;;;;;;;7.43;6.80;;;17.80;99.90;;;;;;6204406;28;20542;-65
2021/09/12 02:27:51;;;;;;;7.70;7.00;;;17.80;99.90;;;;;;6204450;28;20503;-65
2021/09/12 02:30:55;;;;;;;7.00;6.40;;;17.90;99.90;;;;;;6204818;28;20480;-65
2021/09/12 02:33:58;;;;;;;8.40;7.70;;;17.80;99.90;;;;;;6204303;28;20790;-65
2021/09/12 02:37:01;;;;;;;8.27;7.57;;;17.80;99.90;;;;;;6203998;28;20996;-65
2021/09/12 02:40:05;;;;;;;7.07;6.50;;;17.80;99.90;;;;;;6203787;28;20499;-65
2021/09/12 02:43:10;;;;;;;7.43;6.83;;;17.80;99.90;;;;;;6204557;28;20481;-64
2021/09/12 02:46:13;;;;;;;8.00;7.40;;;17.80;99.90;;;;;;6204014;28;20473;-65
2021/09/12 02:49:16;;;;;;;6.93;6.43;;;17.80;99.90;;;;;;6203917;28;20592;-65
2021/09/12 02:52:19;;;;;;;7.40;6.80;;;17.80;99.90;;;;;;6203777;28;20492;-65
2021/09/12 02:55:23;;;;;;;6.60;6.00;;;17.80;99.90;;;;;;6203740;28;20479;-65
2021/09/12 02:58:27;;;;;;;7.43;6.83;;;17.70;99.90;;;;;;6204145;28;20472;-65
2021/09/12 03:01:30;;;;;;;7.80;7.20;;;17.70;99.90;;;;;;6203727;28;20488;-65
2021/09/12 03:04:34;;;;;;;7.23;6.47;;;17.70;99.90;;;;;;6203939;28;20473;-66
2021/09/12 03:07:37;;;;;;;6.97;6.47;;;17.70;99.90;;;;;;6203650;28;20484;-65
2021/09/12 03:10:40;;;;;;;7.80;7.17;;;17.70;99.90;;;;;;6203398;28;20814;-65
2021/09/12 03:13:45;;;;;;;8.00;7.40;;;17.70;99.90;;;;;;6203781;28;20834;-65
2021/09/12 03:16:48;;;;;;;8.43;7.67;;;17.70;99.90;;;;;;6203657;28;20476;-65
2021/09/12 03:19:51;;;;;;;7.93;7.33;;;17.70;99.90;;;;;;6203981;28;20469;-65
2021/09/12 03:22:55;;;;;;;7.47;6.77;;;17.60;99.90;;;;;;6203547;28;20527;-65
2021/09/12 03:25:58;;;;;;;7.43;6.83;;;17.60;99.90;;;;;;6203613;28;20480;-65
2021/09/12 03:29:02;;;;;;;8.30;7.60;;;17.50;99.90;;;;;;6203220;28;20481;-65
2021/09/12 03:32:06;;;;;;;8.37;7.70;;;17.50;99.90;;;;;;6202882;28;20489;-65
2021/09/12 03:35:10;;;;;;;8.17;7.33;;;17.50;99.90;;;;;;6197189;28;20487;-65
2021/09/12 03:38:14;;;;;;;6.97;6.47;;;17.50;99.90;;;;;;6203456;28;20488;-65
2021/09/12 03:41:17;;;;;;;8.10;7.50;;;17.50;99.90;;;;;;6202660;28;20491;-65
2021/09/12 03:44:22;;;;;;;7.17;6.57;;;17.50;99.90;;;;;;6203298;28;20479;-65
2021/09/12 03:47:25;;;;;;;7.83;7.13;;;17.50;99.90;;;;;;6203094;28;20916;-65
2021/09/12 03:50:28;;;;;;;8.03;7.33;;;17.40;99.90;;;;;;6202686;28;20477;-65
2021/09/12 03:53:31;;;;;;;7.83;7.13;;;17.40;99.90;;;;;;6203020;28;20513;-65
2021/09/12 03:56:34;;;;;;;7.20;6.63;;;17.40;99.90;;;;;;6202890;28;20487;-65
2021/09/12 03:59:39;;;;;;;8.43;7.43;;;17.30;99.90;;;;;;6202198;28;20921;-65
2021/09/12 04:02:43;;;;;;;7.80;7.20;;;17.30;99.90;;;;;;6202948;28;20460;-65
2021/09/12 04:05:46;;;;;;;7.90;7.20;;;17.20;99.90;;;;;;6202929;28;20527;-65
2021/09/12 04:08:49;;;;;;;7.93;7.30;;;17.20;99.90;;;;;;6202742;28;20460;-65
2021/09/12 04:11:52;;;;;;;7.40;6.80;;;17.20;99.90;;;;;;6202203;28;20546;-65
2021/09/12 04:14:57;;;;;;;8.07;7.37;;;17.20;99.90;;;;;;6202180;28;20480;-65
2021/09/12 04:18:00;;;;;;;8.47;7.63;;;17.20;99.90;;;;;;6202172;28;20484;-65
2021/09/12 04:21:03;;;;;;;10.80;8.07;;;17.20;99.90;;;;;;6202065;28;20476;-65
2021/09/12 04:24:07;;;;;;;10.43;6.80;;;17.20;99.90;;;;;;6202254;28;20480;-65
2021/09/12 04:27:10;;;;;;;8.23;7.53;;;17.20;99.90;;;;;;6202352;28;20457;-64
2021/09/12 04:30:15;;;;;;;9.10;8.30;;;17.20;99.90;;;;;;6202127;28;20491;-64
2021/09/12 04:33:18;;;;;;;7.70;7.10;;;17.20;99.90;;;;;;6202054;28;20800;-65
2021/09/12 04:36:21;;;;;;;8.37;7.53;;;17.10;99.90;;;;;;6192750;28;20807;-65
2021/09/12 04:39:24;;;;;;;9.47;8.20;;;17.10;99.90;;;;;;6202807;28;20483;-65
2021/09/12 04:42:27;;;;;;;8.33;7.60;;;17.10;99.90;;;;;;6201490;28;20484;-65
2021/09/12 04:45:32;;;;;;;8.57;7.70;;;17.00;99.90;;;;;;6202225;28;20477;-65
2021/09/12 04:48:35;;;;;;;9.03;8.23;;;17.00;99.90;;;;;;6201787;28;20473;-65
2021/09/12 04:51:56;;;;;;;9.27;8.37;;;17.00;99.90;;;;;;6201739;28;21036;-65
2021/09/12 04:54:59;;;;;;;7.87;7.17;;;17.10;99.90;;;;;;6201331;28;20499;-65
2021/09/12 04:58:03;;;;;;;8.80;8.03;;;17.10;99.90;;;;;;6201388;28;20469;-64
2021/09/12 05:01:07;;;;;;;8.53;7.63;;;17.00;99.90;;;;;;6201678;28;20479;-64
2021/09/12 05:04:16;;;;;;;7.77;7.17;;;17.10;99.90;;;;;;6201485;28;20571;-64
2021/09/12 05:07:19;;;;;;;8.87;8.17;;;17.10;99.90;;;;;;6201952;28;20469;-64
2021/09/12 05:10:22;;;;;;;9.50;8.00;;;17.10;99.90;;;;;;6201157;28;20484;-65
2021/09/12 05:13:26;;;;;;;8.67;7.87;;;17.10;99.90;;;;;;6201833;28;20468;-65
2021/09/12 05:16:31;;;;;;;8.10;7.40;;;17.20;99.90;;;;;;6201701;28;20481;-64
2021/09/12 05:19:34;;;;;;;9.47;8.50;;;17.20;99.90;;;;;;6201713;28;20472;-65
2021/09/12 05:22:38;;;;;;;9.27;8.13;;;17.30;99.90;;;;;;6200998;28;20488;-66
2021/09/12 05:25:41;;;;;;;9.00;8.20;;;17.30;99.90;;;;;;6201592;28;20465;-65
2021/09/12 05:28:44;;;;;;;9.87;8.87;;;17.30;99.90;;;;;;6201268;28;20499;-65
2021/09/12 05:31:48;;;;;;;9.50;8.33;;;17.30;99.90;;;;;;6200891;28;20964;-65
2021/09/12 05:34:51;;;;;;;9.10;8.30;;;17.40;99.90;;;;;;6200754;28;20488;-64
2021/09/12 05:37:55;;;;;;;8.40;7.60;;;17.50;99.90;;;;;;6201150;28;20472;-65
2021/09/12 05:40:58;;;;;;;10.53;9.67;;;17.50;99.90;;;;;;6196720;28;20468;-65
2021/09/12 05:44:01;;;;;;;9.10;8.00;;;17.60;99.90;;;;;;6201500;28;20472;-64
2021/09/12 05:47:06;;;;;;;8.67;7.87;;;17.70;99.90;;;;;;6201365;28;20969;-65
2021/09/12 05:50:10;;;;;;;11.33;10.10;;;17.80;99.90;;;;;;6201252;28;20484;-65
2021/09/12 05:53:14;;;;;;;8.83;8.10;;;17.80;99.90;;;;;;6202021;28;20473;-65
2021/09/12 05:56:17;;;;;;;9.80;8.80;;;17.90;99.90;;;;;;6201215;28;20245;-65
2021/09/12 05:59:20;;;;;;;9.70;8.80;;;18.00;99.90;;;;;;6206725;28;20230;-64
2021/09/12 06:02:25;;;;;;;9.23;8.43;;;18.10;99.90;;;;;;6207665;28;20484;-65
2021/09/12 06:05:28;;;;;;;10.57;9.47;;;18.20;99.90;;;;;;6207770;28;20468;-65
2021/09/12 06:08:31;;;;;;;9.60;8.60;;;18.20;99.90;;;;;;6206641;28;20233;-65
2021/09/12 06:11:34;;;;;;;9.60;8.60;;;18.30;99.90;;;;;;6205289;28;20565;-65
2021/09/12 06:14:38;;;;;;;9.30;8.50;;;18.40;99.90;;;;;;6205355;28;20480;-65
2021/09/12 06:17:42;;;;;;;10.20;9.30;;;18.60;99.90;;;;;;6205290;28;20603;-65
2021/09/12 06:20:46;;;;;;;9.90;8.90;;;18.80;99.90;;;;;;6206483;28;20226;-66
2021/09/12 06:23:49;;;;;;;9.77;8.83;;;19.10;99.90;;;;;;6206643;28;20224;-65
2021/09/12 06:26:52;;;;;;;8.90;8.10;;;19.50;99.90;;;;;;6206686;28;20198;-65
2021/09/12 06:29:55;;;;;;;9.93;9.03;;;20.60;99.30;;;;;;6205203;28;20593;-65
2021/09/12 06:32:59;;;;;;;8.90;8.10;;;21.80;96.60;;;;;;6210846;28;20244;-65
2021/09/12 06:36:03;;;;;;;9.73;8.93;;;23.30;93.70;;;;;;6209733;28;20244;-65
2021/09/12 06:39:06;;;;;;;10.00;9.07;;;24.40;91.10;;;;;;6206303;28;20240;-65
2021/09/12 06:42:09;;;;;;;9.70;8.80;;;25.60;87.00;;;;;;6205389;28;20689;-65
2021/09/12 06:45:12;;;;;;;9.60;8.37;;;26.70;80.40;;;;;;6200611;28;20697;-65
2021/09/12 06:48:17;;;;;;;10.37;9.23;;;27.70;75.80;;;;;;6204470;28;20240;-65
2021/09/12 06:51:20;;;;;;;10.20;9.30;;;28.60;70.70;;;;;;6204696;28;20237;-66
2021/09/12 06:54:23;;;;;;;10.00;9.00;;;29.60;65.50;;;;;;6204698;28;20650;-67
2021/09/12 06:57:26;;;;;;;10.70;9.70;;;30.20;60.90;;;;;;6205219;28;20239;-66
2021/09/12 07:00:31;;;;;;;10.70;9.80;;;31.10;58.20;;;;;;6204925;28;20240;-66
2021/09/12 07:03:36;;;;;;;10.60;9.50;;;31.80;55.60;;;;;;6204073;28;20243;-66
2021/09/12 07:06:40;;;;;;;11.00;10.05;;;32.80;52.30;;;;;;6203956;28;20307;-66
2021/09/12 07:09:43;;;;;;;9.70;8.80;;;33.00;50.20;;;;;;6204048;28;20240;-65
2021/09/12 07:12:46;;;;;;;10.23;9.27;;;33.30;49.10;;;;;;6203680;28;20655;-66
2021/09/12 07:15:50;;;;;;;10.80;9.90;;;33.50;48.10;;;;;;6203199;28;20554;-66
2021/09/12 07:18:55;;;;;;;10.13;9.32;;;33.70;47.00;;;;;;6204016;28;20304;-67
2021/09/12 07:21:58;;;;;;;11.45;9.48;;;34.10;46.20;;;;;;6203531;28;20600;-66
2021/09/12 07:25:01;;;;;;;11.55;9.27;;;34.70;44.90;;;;;;6203625;28;20229;-66
2021/09/12 07:28:05;;;;;;;9.93;8.95;;;34.90;43.90;;;;;;6203677;28;20236;-66
2021/09/12 07:31:08;;;;;;;9.35;8.65;;;35.30;43.30;;;;;;6203640;28;20232;-66
2021/09/12 07:34:12;;;;;;;9.57;8.77;;;35.40;42.50;;;;;;6203242;28;20299;-67
2021/09/12 07:37:15;;;;;;;10.48;8.63;;;36.30;41.10;;;;;;6203075;28;20237;-66
2021/09/12 07:40:18;;;;;;;10.18;9.25;;;36.70;40.00;;;;;;6202997;28;20294;-66
2021/09/12 07:43:22;;;;;;;9.25;8.20;;;36.70;39.60;;;;;;6203433;28;20244;-66
2021/09/12 07:46:25;;;;;;;11.52;10.32;;;37.60;38.30;;;;;;6203166;28;20244;-66
2021/09/12 07:49:29;;;;;;;9.90;9.10;;;38.60;36.90;;;;;;6193536;28;20544;-66
2021/09/12 07:52:33;;;;;;;10.10;9.10;;;39.60;35.20;;;;;;6202732;28;20241;-67
2021/09/12 07:55:36;;;;;;;10.18;8.73;;;40.10;34.10;;;;;;6202249;28;20257;-66
2021/09/12 07:58:39;;;;;;;10.18;9.27;;;41.00;32.90;;;;;;6203371;28;20236;-66
2021/09/12 08:01:42;;;;;;;9.55;8.85;;;42.10;31.70;;;;;;6202443;28;20248;-66
2021/09/12 08:04:47;;;;;;;9.05;8.35;;;42.80;30.30;;;;;;6202341;28;20280;-66
2021/09/12 08:07:51;;;;;;;9.65;8.80;;;43.50;29.80;;;;;;6202140;28;20232;-67
2021/09/12 08:10:55;;;;;;;8.80;8.18;;;44.30;28.80;;;;;;6202280;28;20244;-66
2021/09/12 08:13:58;;;;;;;9.27;8.63;;;45.10;28.10;;;;;;6201991;28;20229;-66
2021/09/12 08:17:01;;;;;;;9.00;8.27;;;46.10;27.10;;;;;;6202200;28;20248;-66
2021/09/12 08:20:07;;;;;;;8.77;7.90;;;46.50;26.60;;;;;;6201812;28;20296;-67
2021/09/12 08:23:10;;;;;;;8.23;7.72;;;47.10;25.50;;;;;;6202518;28;20371;-67
2021/09/12 08:26:14;;;;;;;8.93;8.32;;;47.40;24.80;;;;;;6201981;28;20669;-67
2021/09/12 08:29:17;;;;;;;8.90;8.30;;;47.30;24.40;;;;;;6201392;28;20231;-67
2021/09/12 08:32:20;;;;;;;7.68;7.10;;;47.70;24.20;;;;;;6201741;28;20252;-67
2021/09/12 08:35:27;;;;;;;7.60;6.90;;;48.60;23.50;;;;;;6201836;28;20230;-66
2021/09/12 08:38:30;;;;;;;8.00;7.50;;;49.40;23.30;;;;;;6200254;28;20236;-66
2021/09/12 08:41:35;;;;;;;8.02;7.53;;;50.00;22.50;;;;;;6200400;28;20246;-66
2021/09/12 08:44:38;;;;;;;8.30;7.70;;;50.10;22.30;;;;;;6200883;28;20247;-67
2021/09/12 08:47:42;;;;;;;7.80;7.20;;;50.50;21.80;;;;;;6200225;28;20699;-67
2021/09/12 08:50:47;;;;;;;8.52;7.90;;;51.20;21.50;;;;;;6200458;28;20221;-67
2021/09/12 08:53:50;;;;;;;8.55;7.80;;;51.60;21.00;;;;;;6201994;28;20211;-67
2021/09/12 08:56:53;;;;;;;7.90;7.30;;;52.00;20.80;;;;;;6201407;28;20668;-67
2021/09/12 08:59:56;;;;;;;7.47;7.00;;;52.30;20.50;;;;;;6201184;28;20550;-67
2021/09/12 09:03:01;;;;;;;8.05;7.38;;;52.60;20.00;;;;;;6204678;28;20219;-67
2021/09/12 09:06:17;;;;;;;7.32;6.90;;;53.20;19.40;;;;;;6212123;28;20244;-67
2021/09/12 09:09:21;;;;;;;8.00;7.25;;;54.00;19.10;;;;;;6210890;28;20239;-67
2021/09/12 09:12:27;;;;;;;7.57;7.07;;;54.10;18.90;;;;;;6206442;28;20224;-67
2021/09/12 09:15:31;;;;;;;8.27;7.63;;;53.70;18.70;;;;;;6207156;28;20240;-67
2021/09/12 09:18:37;;;;;;;7.78;7.20;;;53.30;18.90;;;;;;6207294;28;20224;-67
2021/09/12 09:21:43;;;;;;;8.52;7.93;;;54.00;18.80;;;;;;6211432;28;20303;-66
2021/09/12 09:24:46;;;;;;;8.45;8.00;;;54.40;18.70;;;;;;6206318;28;20234;-65
2021/09/12 09:28:00;;;;;;;8.10;7.60;;;52.60;19.10;;;;;;6201228;28;20295;-66
2021/09/12 09:31:08;;;;;;;7.72;7.22;;;51.40;19.90;;;;;;6211984;28;20229;-65
2021/09/12 09:34:19;;;;;;;8.77;8.05;;;51.70;19.90;;;;;;6207039;28;20669;-66
2021/09/12 09:37:23;;;;;;;8.50;7.82;;;52.10;19.70;;;;;;6223530;28;20245;-66
2021/09/12 09:40:27;;;;;;;8.77;8.23;;;51.50;20.10;;;;;;6221149;28;20242;-66
2021/09/12 09:43:41;;;;;;;8.57;8.07;;;52.20;19.70;;;;;;6220198;28;20238;-66
2021/09/12 09:46:45;;;;;;;7.43;6.90;;;52.10;19.80;;;;;;6216956;28;20684;-66
2021/09/12 09:49:49;;;;;;;8.30;7.80;;;53.00;19.00;;;;;;6217931;28;20220;-67
2021/09/12 09:52:55;;;;;;;8.45;7.50;;;54.00;18.60;;;;;;6216430;28;20235;-67
2021/09/12 09:55:58;;;;;;;7.88;7.22;;;52.90;18.80;;;;;;6216398;28;20232;-67
2021/09/12 09:59:01;;;;;;;7.88;7.47;;;52.90;18.70;;;;;;6217133;28;20232;-67
2021/09/12 10:02:05;;;;;;;7.07;6.68;;;53.00;18.70;;;;;;6216229;28;20228;-67
2021/09/12 10:05:10;;;;;;;7.72;7.30;;;52.50;18.90;;;;;;6218439;28;20306;-66
2021/09/12 10:08:15;;;;;;;7.40;6.90;;;51.10;19.80;;;;;;6214280;28;20236;-66
2021/09/12 10:11:18;;;;;;;7.93;7.53;;;49.60;20.30;;;;;;6215035;28;20288;-66
2021/09/12 10:14:28;;;;;;;8.05;7.53;;;47.90;21.10;;;;;;6218002;28;20236;-66
2021/09/12 10:17:35;;;;;;;7.95;7.45;;;46.20;22.00;;;;;;6220413;28;20566;-66
2021/09/12 10:20:39;;;;;;;7.97;7.47;;;44.70;23.40;;;;;;6229437;28;20251;-65
2021/09/12 10:23:57;;;;;;;9.70;8.95;;;43.20;24.50;;;;;;6229158;28;20527;-65
2021/09/12 10:27:32;;;;;;;8.88;8.35;;;41.00;26.10;;;;;;6229630;28;20229;-66
2021/09/12 10:30:38;;;;;;;8.20;7.65;;;39.80;27.30;;;;;;6228624;28;20272;-66
2021/09/12 10:33:41;;;;;;;8.65;8.05;;;38.10;29.00;;;;;;6221501;28;20231;-65
2021/09/12 10:36:45;;;;;;;8.95;8.30;;;37.20;29.90;;;;;;6214999;28;20259;-65
2021/09/12 10:39:53;;;;;;;8.77;8.07;;;35.80;32.00;;;;;;6216701;28;20688;-65
2021/09/12 10:42:56;;;;;;;9.30;8.60;;;35.00;33.30;;;;;;6216112;28;20307;-65
2021/09/12 10:46:21;;;;;;;9.00;8.32;;;34.70;33.60;;;;;;6215069;28;20233;-66
2021/09/12 10:49:30;;;;;;;9.55;8.57;;;34.50;33.90;;;;;;6214889;28;20303;-66
2021/09/12 10:52:46;;;;;;;9.88;9.15;;;34.20;34.40;;;;;;6217075;28;20604;-65
2021/09/12 10:56:02;;;;;;;8.75;8.05;;;34.00;34.90;;;;;;6215497;28;20225;-65
2021/09/12 10:59:10;;;;;;;8.63;8.13;;;33.60;34.50;;;;;;6214835;28;20360;-67
2021/09/12 11:02:16;;;;;;;9.10;8.40;;;33.40;34.70;;;;;;6220497;28;20232;-66
2021/09/12 11:05:25;;;;;;;8.73;8.13;;;33.50;35.60;;;;;;6226849;28;20233;-65
2021/09/12 11:08:36;;;;;;;8.90;8.30;;;33.60;35.50;;;;;;6216951;28;20684;-65
2021/09/12 11:11:40;;;;;;;7.88;7.38;;;33.80;35.30;;;;;;6215911;28;20693;-66
2021/09/12 11:14:44;;;;;;;8.68;7.97;;;33.60;34.70;;;;;;6215869;28;20655;-66
2021/09/12 11:17:53;;;;;;;9.10;8.50;;;33.70;35.00;;;;;;6214416;28;20291;-66
2021/09/12 11:20:56;;;;;;;8.65;8.05;;;33.40;35.70;;;;;;6213764;28;20232;-66
2021/09/12 11:24:01;;;;;;;8.73;8.10;;;33.20;36.40;;;;;;6215327;28;20205;-66
2021/09/12 11:27:07;;;;;;;9.35;8.45;;;33.20;36.50;;;;;;6215485;28;20224;-66
2021/09/12 11:30:11;;;;;;;9.68;8.77;;;32.80;36.70;;;;;;6212675;28;20696;-66
2021/09/12 11:33:14;;;;;;;8.65;8.05;;;32.60;37.50;;;;;;6214870;28;20239;-65
2021/09/12 11:36:17;;;;;;;8.82;8.13;;;32.30;38.30;;;;;;6210496;28;20228;-66
2021/09/12 11:39:24;;;;;;;9.75;8.85;;;32.30;38.50;;;;;;6213984;28;20244;-64
2021/09/12 11:42:28;;;;;;;8.85;8.25;;;32.20;38.80;;;;;;6215524;28;20239;-64
2021/09/12 11:45:31;;;;;;;8.27;7.68;;;32.30;39.20;;;;;;6212637;28;20243;-65
2021/09/12 11:48:34;;;;;;;8.18;7.47;;;32.40;37.60;;;;;;6206606;28;20221;-64
2021/09/12 11:51:40;;;;;;;8.80;8.20;;;32.30;37.40;;;;;;6214032;28;20243;-66
2021/09/12 11:54:43;;;;;;;9.02;8.43;;;32.70;37.00;;;;;;6215437;28;20689;-65
2021/09/12 11:58:00;;;;;;;7.90;7.30;;;33.00;37.20;;;;;;6214639;28;20567;-67
2021/09/12 12:01:03;;;;;;;8.43;7.72;;;33.10;36.70;;;;;;6214616;28;20229;-66
2021/09/12 12:04:07;;;;;;;8.02;7.53;;;33.00;37.00;;;;;;6207881;28;20229;-66
2021/09/12 12:07:11;;;;;;;8.75;8.05;;;33.10;37.20;;;;;;6215359;28;20224;-66
2021/09/12 12:10:30;;;;;;;7.90;7.20;;;33.00;36.60;;;;;;6213449;28;20237;-66
2021/09/12 12:13:34;;;;;;;8.80;8.13;;;32.80;37.00;;;;;;6226681;28;20244;-65
2021/09/12 12:16:42;;;;;;;7.97;7.38;;;32.10;37.90;;;;;;6203669;28;20677;-64
2021/09/12 12:19:46;;;;;;;8.98;8.27;;;32.10;38.00;;;;;;6202273;28;20283;-65
2021/09/12 12:22:49;;;;;;;8.27;7.47;;;31.80;38.10;;;;;;6201610;28;20700;-64
2021/09/12 12:25:53;;;;;;;8.32;7.70;;;31.00;39.40;;;;;;6202180;28;20228;-65
2021/09/12 12:29:00;;;;;;;8.23;7.63;;;30.90;39.70;;;;;;6216031;28;20220;-64
2021/09/12 12:32:06;;;;;;;8.38;7.78;;;31.00;40.50;;;;;;6226193;28;20239;-62
2021/09/12 12:35:16;;;;;;;7.57;7.07;;;31.40;39.10;;;;;;6225704;28;20224;-62
2021/09/12 12:38:25;;;;;;;8.07;7.47;;;31.90;37.90;;;;;;6225495;28;20664;-62
2021/09/12 12:41:29;;;;;;;8.25;7.50;;;32.10;37.60;;;;;;6225822;28;20246;-62
2021/09/12 12:44:42;;;;;;;8.20;7.53;;;32.20;38.00;;;;;;6226032;28;20227;-64
2021/09/12 12:47:46;;;;;;;7.80;7.30;;;32.00;37.90;;;;;;6220032;28;20220;-64
2021/09/12 12:50:50;;;;;;;9.07;8.27;;;31.90;39.20;;;;;;6211602;28;20234;-64
2021/09/12 12:53:56;;;;;;;8.93;8.13;;;31.50;39.50;;;;;;6213291;28;20529;-64
2021/09/12 12:56:59;;;;;;;8.65;7.90;;;31.20;40.20;;;;;;6213303;28;20201;-65
2021/09/12 13:00:05;;;;;;;9.07;8.38;;;31.10;40.70;;;;;;6211525;28;20231;-63
2021/09/12 13:03:08;;;;;;;8.85;8.10;;;31.00;41.00;;;;;;6216453;28;20216;-65
2021/09/12 13:06:13;;;;;;;8.82;8.23;;;31.00;42.00;;;;;;6212797;28;20232;-65
2021/09/12 13:09:16;;;;;;;7.88;7.35;;;31.00;41.30;;;;;;6219112;28;20307;-64
2021/09/12 13:12:19;;;;;;;9.20;8.55;;;31.10;41.40;;;;;;6220467;28;20232;-64
2021/09/12 13:15:38;;;;;;;8.40;7.70;;;30.70;41.50;;;;;;6214144;28;20232;-64
2021/09/12 13:18:41;;;;;;;9.40;8.80;;;30.80;41.70;;;;;;6223656;28;20239;-65
2021/09/12 13:21:44;;;;;;;10.00;9.20;;;30.80;42.00;;;;;;6222569;28;20234;-64
2021/09/12 13:24:47;;;;;;;9.60;8.88;;;30.50;42.20;;;;;;6231106;28;20228;-63
2021/09/12 13:27:51;;;;;;;10.23;9.43;;;30.30;43.00;;;;;;6232239;28;20227;-71
2021/09/12 13:30:56;;;;;;;8.97;8.27;;;30.20;43.10;;;;;;6232826;28;20679;-62
2021/09/12 13:34:01;;;;;;;9.83;8.93;;;30.30;43.70;;;;;;6229750;28;20239;-62
2021/09/12 13:37:04;;;;;;;8.30;7.47;;;30.30;43.60;;;;;;6221653;28;20251;-62
2021/09/12 13:40:09;;;;;;;8.90;8.23;;;30.20;42.70;;;;;;6221381;28;20225;-62
2021/09/12 13:43:12;;;;;;;8.30;7.67;;;30.00;43.00;;;;;;6218313;28;20239;-63
2021/09/12 13:46:17;;;;;;;7.73;7.13;;;30.00;43.40;;;;;;6219985;28;20236;-63
2021/09/12 13:49:21;;;;;;;7.80;7.20;;;30.00;43.80;;;;;;6220118;28;20247;-62
2021/09/12 13:52:24;;;;;;;12.77;11.77;;;30.00;43.00;;;;;;6220744;28;20232;-62
2021/09/12 13:55:32;;;;;;;10.53;9.70;;;29.90;44.60;;;;;;6225117;28;20224;-62
2021/09/12 13:58:35;;;;;;;10.37;8.43;;;29.70;45.40;;;;;;6217369;28;20715;-62
2021/09/12 14:01:40;;;;;;;8.70;7.87;;;29.30;47.10;;;;;;6206921;28;20550;-62
2021/09/12 14:04:44;;;;;;;9.47;8.67;;;29.10;47.80;;;;;;6206782;28;20669;-61
2021/09/12 14:07:47;;;;;;;7.87;7.30;;;28.90;48.20;;;;;;6208415;28;20225;-63
2021/09/12 14:10:58;;;;;;;8.67;7.97;;;28.80;48.30;;;;;;6208084;28;20681;-63
2021/09/12 14:14:01;;;;;;;7.80;7.20;;;28.70;48.30;;;;;;6199827;28;20622;-62
2021/09/12 14:17:06;;;;;;;8.37;7.67;;;28.70;48.30;;;;;;6226913;28;20251;-63
2021/09/12 14:20:10;;;;;;;8.43;7.83;;;28.60;48.90;;;;;;6227921;28;20246;-63
2021/09/12 14:23:13;;;;;;;9.40;7.90;;;28.30;49.10;;;;;;6228673;28;20232;-63
2021/09/12 14:26:17;;;;;;;7.53;6.83;;;27.90;49.60;;;;;;6228693;28;20735;-62
2021/09/12 14:29:20;;;;;;;6.73;6.23;;;27.70;49.80;;;;;;6228962;28;20235;-63
2021/09/12 14:32:24;;;;;;;6.87;6.37;;;27.40;45.40;;;;;;6220127;28;20229;-64
2021/09/12 14:35:27;;;;;;;7.37;6.87;;;27.30;46.30;;;;;;6215002;28;20229;-65
2021/09/12 14:38:31;;;;;;;7.30;6.70;;;27.10;48.80;;;;;;6215842;28;20649;-63
2021/09/12 14:41:34;;;;;;;7.30;6.60;;;27.10;51.20;;;;;;6217474;28;20223;-62
2021/09/12 14:44:37;;;;;;;7.07;6.43;;;27.20;52.00;;;;;;6217212;28;20239;-62
2021/09/12 14:47:42;;;;;;;6.93;6.43;;;27.10;48.90;;;;;;6215495;28;20220;-62
2021/09/12 14:50:46;;;;;;;6.30;5.70;;;27.00;48.50;;;;;;6214404;28;20622;-64
2021/09/12 14:53:49;;;;;;;6.53;6.03;;;27.10;48.70;;;;;;6216719;28;20204;-62
2021/09/12 14:56:52;;;;;;;7.63;7.03;;;27.10;51.30;;;;;;6215035;28;20197;-63
2021/09/12 14:59:55;;;;;;;7.47;6.97;;;27.10;52.30;;;;;;6214931;28;20308;-63
2021/09/12 15:02:59;;;;;;;9.33;8.63;;;27.20;54.70;;;;;;6215382;28;20544;-63
2021/09/12 15:06:03;;;;;;;8.90;8.20;;;27.30;55.10;;;;;;6214370;28;20231;-63
2021/09/12 15:09:06;;;;;;;9.03;8.33;;;27.40;55.40;;;;;;6213963;28;20225;-63
2021/09/12 15:12:09;;;;;;;9.47;8.60;;;27.40;56.30;;;;;;6215049;28;20236;-63
2021/09/12 15:15:14;;;;;;;9.40;8.60;;;27.40;56.80;;;;;;6222122;28;20238;-65
2021/09/12 15:18:18;;;;;;;10.10;9.40;;;27.40;57.10;;;;;;6227734;28;20232;-65
2021/09/12 15:21:21;;;;;;;8.77;8.07;;;27.40;56.80;;;;;;6227649;28;20236;-66
2021/09/12 15:24:25;;;;;;;9.27;8.57;;;27.20;56.80;;;;;;6227650;28;20232;-66
2021/09/12 15:27:28;;;;;;;9.90;9.10;;;27.10;57.20;;;;;;6222412;28;20220;-64
2021/09/12 15:30:31;;;;;;;11.03;8.73;;;27.10;56.90;;;;;;6226177;28;20251;-65
2021/09/12 15:33:36;;;;;;;8.90;8.30;;;27.20;57.10;;;;;;6227682;28;20294;-64
2021/09/12 15:36:39;;;;;;;8.90;8.30;;;27.30;57.40;;;;;;6227231;28;20691;-64
2021/09/12 15:39:42;;;;;;;9.50;8.53;;;27.10;57.10;;;;;;6226978;28;20239;-64
2021/09/12 15:42:45;;;;;;;8.83;8.20;;;27.10;57.70;;;;;;6226691;28;20239;-63
2021/09/12 15:45:49;;;;;;;10.63;9.60;;;27.20;57.90;;;;;;6226739;28;20303;-64
2021/09/12 15:48:54;;;;;;;8.33;7.73;;;27.30;57.40;;;;;;6226879;28;20289;-64
2021/09/12 15:51:58;;;;;;;8.60;7.87;;;27.40;57.10;;;;;;6227027;28;20232;-64
2021/09/12 15:55:02;;;;;;;9.23;8.53;;;27.60;57.40;;;;;;6226354;28;20243;-66
2021/09/12 15:58:05;;;;;;;8.97;8.27;;;27.60;56.50;;;;;;6226506;28;20238;-64